sensor_id;sensor_type;location;lat;lon;timestamp;pressure;altitude;pressure_sealevel;temperature;humidity
41218;BME280;26950;50.960;7.138;2024-03-06T00:00:01;100693.28;;;11.98;92.89
41218;BME280;26950;50.960;7.138;2024-03-06T00:02:28;100697.63;;;11.96;93.61
41218;BME280;26950;50.960;7.138;2024-03-06T00:04:56;100704.63;;;11.95;94.30
41218;BME280;26950;50.960;7.138;2024-03-06T00:07:23;100706.31;;;11.93;94.10
41218;BME280;26950;50.960;7.138;2024-03-06T00:09:50;100708.16;;;11.96;93.99
41218;BME280;26950;50.960;7.138;2024-03-06T00:12:16;100709.75;;;11.89;94.35
41218;BME280;26950;50.960;7.138;2024-03-06T00:14:43;100713.16;;;11.86;94.81
41218;BME280;26950;50.960;7.138;2024-03-06T00:17:10;100720.28;;;11.91;95.39
41218;BME280;26950;50.960;7.138;2024-03-06T00:19:36;100717.69;;;11.92;95.24
41218;BME280;26950;50.960;7.138;2024-03-06T00:22:05;100719.56;;;11.98;94.88
41218;BME280;26950;50.960;7.138;2024-03-06T00:24:31;100719.53;;;11.95;94.56
41218;BME280;26950;50.960;7.138;2024-03-06T00:26:58;100711.53;;;11.92;94.88
41218;BME280;26950;50.960;7.138;2024-03-06T00:29:25;100722.06;;;11.92;95.04
41218;BME280;26950;50.960;7.138;2024-03-06T00:31:51;100716.81;;;11.93;95.21
41218;BME280;26950;50.960;7.138;2024-03-06T00:34:18;100722.16;;;11.95;94.81
41218;BME280;26950;50.960;7.138;2024-03-06T00:36:45;100728.94;;;11.86;95.00
41218;BME280;26950;50.960;7.138;2024-03-06T00:39:13;100739.38;;;11.82;95.32
41218;BME280;26950;50.960;7.138;2024-03-06T00:41:41;100741.16;;;11.84;95.41
41218;BME280;26950;50.960;7.138;2024-03-06T00:44:07;100741.22;;;11.87;95.25
41218;BME280;26950;50.960;7.138;2024-03-06T00:46:34;100745.66;;;11.88;94.53
41218;BME280;26950;50.960;7.138;2024-03-06T00:49:00;100744.69;;;11.85;93.95
41218;BME280;26950;50.960;7.138;2024-03-06T00:51:27;100747.00;;;11.74;94.17
41218;BME280;26950;50.960;7.138;2024-03-06T00:53:54;100752.06;;;11.65;94.59
41218;BME280;26950;50.960;7.138;2024-03-06T00:56:21;100754.59;;;11.62;95.41
41218;BME280;26950;50.960;7.138;2024-03-06T00:58:48;100755.59;;;11.67;95.25
41218;BME280;26950;50.960;7.138;2024-03-06T01:01:15;100755.75;;;11.73;95.40
41218;BME280;26950;50.960;7.138;2024-03-06T01:03:42;100750.63;;;11.78;95.25
41218;BME280;26950;50.960;7.138;2024-03-06T01:06:09;100759.59;;;11.86;94.82
41218;BME280;26950;50.960;7.138;2024-03-06T01:08:36;100761.47;;;11.90;93.90
41218;BME280;26950;50.960;7.138;2024-03-06T01:11:02;100764.75;;;11.81;93.56
41218;BME280;26950;50.960;7.138;2024-03-06T01:13:30;100769.69;;;11.69;93.44
41218;BME280;26950;50.960;7.138;2024-03-06T01:15:57;100765.63;;;11.49;95.25
41218;BME280;26950;50.960;7.138;2024-03-06T01:18:24;100767.16;;;11.41;96.04
41218;BME280;26950;50.960;7.138;2024-03-06T01:20:50;100767.03;;;11.36;97.07
41218;BME280;26950;50.960;7.138;2024-03-06T01:23:16;100770.47;;;11.33;97.11
41218;BME280;26950;50.960;7.138;2024-03-06T01:25:43;100766.13;;;11.34;97.23
41218;BME280;26950;50.960;7.138;2024-03-06T01:28:09;100776.94;;;11.45;97.01
41218;BME280;26950;50.960;7.138;2024-03-06T01:30:37;100778.06;;;11.56;96.05
41218;BME280;26950;50.960;7.138;2024-03-06T01:33:04;100785.97;;;11.56;94.28
41218;BME280;26950;50.960;7.138;2024-03-06T01:35:31;100777.03;;;11.49;93.81
41218;BME280;26950;50.960;7.138;2024-03-06T01:37:58;100786.59;;;11.46;94.28
41218;BME280;26950;50.960;7.138;2024-03-06T01:40:26;100772.25;;;11.34;94.38
41218;BME280;26950;50.960;7.138;2024-03-06T01:42:54;100781.00;;;11.33;94.70
41218;BME280;26950;50.960;7.138;2024-03-06T01:45:21;100780.06;;;11.31;94.60
41218;BME280;26950;50.960;7.138;2024-03-06T01:47:48;100788.72;;;11.27;93.40
41218;BME280;26950;50.960;7.138;2024-03-06T01:50:16;100787.63;;;11.19;93.43
41218;BME280;26950;50.960;7.138;2024-03-06T01:52:43;100794.19;;;11.05;93.31
41218;BME280;26950;50.960;7.138;2024-03-06T01:55:12;100793.84;;;10.93;93.99
41218;BME280;26950;50.960;7.138;2024-03-06T01:57:39;100797.28;;;10.90;94.79
41218;BME280;26950;50.960;7.138;2024-03-06T02:00:08;100800.78;;;10.91;94.42
41218;BME280;26950;50.960;7.138;2024-03-06T02:02:40;100802.50;;;10.89;94.16
41218;BME280;26950;50.960;7.138;2024-03-06T02:05:09;100801.66;;;10.91;94.25
41218;BME280;26950;50.960;7.138;2024-03-06T02:07:36;100792.69;;;10.83;94.46
41218;BME280;26950;50.960;7.138;2024-03-06T02:10:06;100790.22;;;10.88;94.49
41218;BME280;26950;50.960;7.138;2024-03-06T02:12:32;100799.94;;;10.92;94.40
41218;BME280;26950;50.960;7.138;2024-03-06T02:14:59;100797.16;;;10.87;94.78
41218;BME280;26950;50.960;7.138;2024-03-06T02:17:28;100798.19;;;10.92;94.33
41218;BME280;26950;50.960;7.138;2024-03-06T02:19:55;100809.50;;;10.90;94.42
41218;BME280;26950;50.960;7.138;2024-03-06T02:22:24;100807.03;;;10.94;94.60
41218;BME280;26950;50.960;7.138;2024-03-06T02:24:51;100809.69;;;10.96;94.89
41218;BME280;26950;50.960;7.138;2024-03-06T02:27:17;100809.78;;;10.99;95.04
41218;BME280;26950;50.960;7.138;2024-03-06T02:29:44;100802.13;;;11.06;95.50
41218;BME280;26950;50.960;7.138;2024-03-06T02:32:12;100807.47;;;11.10;94.93
41218;BME280;26950;50.960;7.138;2024-03-06T02:34:39;100809.44;;;11.18;95.21
41218;BME280;26950;50.960;7.138;2024-03-06T02:37:05;100802.72;;;11.28;93.84
41218;BME280;26950;50.960;7.138;2024-03-06T02:39:33;100800.78;;;11.21;94.53
41218;BME280;26950;50.960;7.138;2024-03-06T02:42:00;100800.06;;;11.26;94.71
41218;BME280;26950;50.960;7.138;2024-03-06T02:44:26;100803.72;;;11.31;93.97
41218;BME280;26950;50.960;7.138;2024-03-06T02:46:53;100805.22;;;11.23;93.71
41218;BME280;26950;50.960;7.138;2024-03-06T02:49:19;100802.34;;;11.14;94.36
41218;BME280;26950;50.960;7.138;2024-03-06T02:51:46;100802.31;;;11.13;94.27
41218;BME280;26950;50.960;7.138;2024-03-06T02:54:12;100798.13;;;11.19;94.51
41218;BME280;26950;50.960;7.138;2024-03-06T02:56:40;100799.91;;;11.20;94.95
41218;BME280;26950;50.960;7.138;2024-03-06T02:59:07;100799.00;;;11.20;94.03
41218;BME280;26950;50.960;7.138;2024-03-06T03:01:34;100809.59;;;11.23;94.32
41218;BME280;26950;50.960;7.138;2024-03-06T03:04:00;100803.38;;;11.19;94.21
41218;BME280;26950;50.960;7.138;2024-03-06T03:06:27;100813.03;;;11.20;94.28
41218;BME280;26950;50.960;7.138;2024-03-06T03:08:54;100807.94;;;11.26;94.73
41218;BME280;26950;50.960;7.138;2024-03-06T03:11:21;100804.53;;;11.30;93.77
41218;BME280;26950;50.960;7.138;2024-03-06T03:13:49;100808.97;;;11.31;93.97
41218;BME280;26950;50.960;7.138;2024-03-06T03:16:16;100802.91;;;11.34;93.81
41218;BME280;26950;50.960;7.138;2024-03-06T03:18:43;100804.47;;;11.27;93.04
41218;BME280;26950;50.960;7.138;2024-03-06T03:21:10;100797.06;;;11.13;94.02
41218;BME280;26950;50.960;7.138;2024-03-06T03:23:37;100802.53;;;11.20;94.16
41218;BME280;26950;50.960;7.138;2024-03-06T03:26:04;100803.28;;;11.16;93.75
41218;BME280;26950;50.960;7.138;2024-03-06T03:28:31;100814.31;;;11.04;93.77
41218;BME280;26950;50.960;7.138;2024-03-06T03:30:59;100812.47;;;11.00;93.74
41218;BME280;26950;50.960;7.138;2024-03-06T03:33:25;100813.34;;;11.01;94.09
41218;BME280;26950;50.960;7.138;2024-03-06T03:35:52;100801.72;;;10.93;93.55
41218;BME280;26950;50.960;7.138;2024-03-06T03:38:18;100814.84;;;10.93;93.81
41218;BME280;26950;50.960;7.138;2024-03-06T03:40:45;100815.63;;;10.89;94.24
41218;BME280;26950;50.960;7.138;2024-03-06T03:43:11;100820.88;;;10.89;94.49
41218;BME280;26950;50.960;7.138;2024-03-06T03:45:38;100831.47;;;10.93;94.33
41218;BME280;26950;50.960;7.138;2024-03-06T03:48:06;100839.13;;;10.86;93.60
41218;BME280;26950;50.960;7.138;2024-03-06T03:50:32;100845.72;;;10.71;95.20
41218;BME280;26950;50.960;7.138;2024-03-06T03:52:59;100844.91;;;10.74;95.09
41218;BME280;26950;50.960;7.138;2024-03-06T03:55:26;100847.47;;;10.72;95.40
41218;BME280;26950;50.960;7.138;2024-03-06T03:57:52;100851.16;;;10.77;95.08
41218;BME280;26950;50.960;7.138;2024-03-06T04:00:19;100842.56;;;10.83;94.34
41218;BME280;26950;50.960;7.138;2024-03-06T04:02:47;100850.63;;;10.89;94.12
41218;BME280;26950;50.960;7.138;2024-03-06T04:05:15;100853.22;;;10.88;93.88
41218;BME280;26950;50.960;7.138;2024-03-06T04:07:42;100861.00;;;10.85;94.21
41218;BME280;26950;50.960;7.138;2024-03-06T04:10:10;100855.00;;;10.89;94.15
41218;BME280;26950;50.960;7.138;2024-03-06T04:12:37;100863.72;;;10.88;93.52
41218;BME280;26950;50.960;7.138;2024-03-06T04:15:05;100864.50;;;10.85;93.99
41218;BME280;26950;50.960;7.138;2024-03-06T04:17:31;100862.75;;;10.86;94.25
41218;BME280;26950;50.960;7.138;2024-03-06T04:19:58;100872.56;;;10.91;93.72
41218;BME280;26950;50.960;7.138;2024-03-06T04:22:26;100871.22;;;10.75;93.60
41218;BME280;26950;50.960;7.138;2024-03-06T04:24:54;100870.72;;;10.60;95.50
41218;BME280;26950;50.960;7.138;2024-03-06T04:27:21;100872.66;;;10.66;96.38
41218;BME280;26950;50.960;7.138;2024-03-06T04:29:47;100874.66;;;10.74;95.96
41218;BME280;26950;50.960;7.138;2024-03-06T04:32:14;100876.88;;;10.89;94.62
41218;BME280;26950;50.960;7.138;2024-03-06T04:34:40;100884.63;;;10.85;93.04
41218;BME280;26950;50.960;7.138;2024-03-06T04:37:07;100878.06;;;10.70;93.70
41218;BME280;26950;50.960;7.138;2024-03-06T04:39:34;100888.25;;;10.61;94.17
41218;BME280;26950;50.960;7.138;2024-03-06T04:42:01;100893.25;;;10.53;94.78
41218;BME280;26950;50.960;7.138;2024-03-06T04:44:28;100891.28;;;10.46;95.14
41218;BME280;26950;50.960;7.138;2024-03-06T04:46:54;100901.84;;;10.49;95.90
41218;BME280;26950;50.960;7.138;2024-03-06T04:49:21;100898.53;;;10.55;95.34
41218;BME280;26950;50.960;7.138;2024-03-06T04:51:48;100901.38;;;10.61;94.89
41218;BME280;26950;50.960;7.138;2024-03-06T04:54:14;100907.78;;;10.69;94.57
41218;BME280;26950;50.960;7.138;2024-03-06T04:56:42;100909.88;;;10.81;94.10
41218;BME280;26950;50.960;7.138;2024-03-06T04:59:09;100913.50;;;10.85;93.86
41218;BME280;26950;50.960;7.138;2024-03-06T05:01:35;100910.34;;;10.96;93.45
41218;BME280;26950;50.960;7.138;2024-03-06T05:04:02;100910.34;;;10.96;92.55
41218;BME280;26950;50.960;7.138;2024-03-06T05:06:29;100912.06;;;10.94;92.73
41218;BME280;26950;50.960;7.138;2024-03-06T05:08:55;100917.31;;;10.94;92.40
41218;BME280;26950;50.960;7.138;2024-03-06T05:11:22;100911.09;;;10.92;92.83
41218;BME280;26950;50.960;7.138;2024-03-06T05:13:50;100922.69;;;10.99;93.02
41218;BME280;26950;50.960;7.138;2024-03-06T05:16:16;100926.28;;;11.01;93.21
41218;BME280;26950;50.960;7.138;2024-03-06T05:18:43;100922.03;;;11.06;92.55
41218;BME280;26950;50.960;7.138;2024-03-06T05:21:09;100927.16;;;11.01;92.45
41218;BME280;26950;50.960;7.138;2024-03-06T05:23:37;100933.31;;;11.02;92.61
41218;BME280;26950;50.960;7.138;2024-03-06T05:26:03;100935.16;;;11.06;92.96
41218;BME280;26950;50.960;7.138;2024-03-06T05:28:30;100940.47;;;11.07;92.65
41218;BME280;26950;50.960;7.138;2024-03-06T05:30:58;100934.16;;;11.01;92.38
41218;BME280;26950;50.960;7.138;2024-03-06T05:33:26;100934.81;;;10.94;92.95
41218;BME280;26950;50.960;7.138;2024-03-06T05:35:53;100931.41;;;10.98;93.30
41218;BME280;26950;50.960;7.138;2024-03-06T05:38:19;100933.34;;;11.03;92.94
41218;BME280;26950;50.960;7.138;2024-03-06T05:40:47;100932.63;;;11.09;91.94
41218;BME280;26950;50.960;7.138;2024-03-06T05:43:13;100938.69;;;11.06;91.75
41218;BME280;26950;50.960;7.138;2024-03-06T05:45:40;100941.31;;;11.06;91.93
41218;BME280;26950;50.960;7.138;2024-03-06T05:48:08;100946.81;;;11.14;91.90
41218;BME280;26950;50.960;7.138;2024-03-06T05:50:34;100946.63;;;11.08;91.54
41218;BME280;26950;50.960;7.138;2024-03-06T05:53:01;100957.16;;;11.10;91.90
41218;BME280;26950;50.960;7.138;2024-03-06T05:55:28;100953.50;;;11.04;91.27
41218;BME280;26950;50.960;7.138;2024-03-06T05:57:54;100959.53;;;11.00;92.94
41218;BME280;26950;50.960;7.138;2024-03-06T06:00:21;100959.59;;;11.03;93.13
41218;BME280;26950;50.960;7.138;2024-03-06T06:02:48;100963.22;;;11.07;92.35
41218;BME280;26950;50.960;7.138;2024-03-06T06:05:16;100970.56;;;10.90;92.01
41218;BME280;26950;50.960;7.138;2024-03-06T06:07:45;100971.28;;;10.86;92.82
41218;BME280;26950;50.960;7.138;2024-03-06T06:10:11;100978.44;;;10.90;93.16
41218;BME280;26950;50.960;7.138;2024-03-06T06:12:38;100986.47;;;10.95;93.77
41218;BME280;26950;50.960;7.138;2024-03-06T06:15:05;100985.13;;;11.07;93.52
41218;BME280;26950;50.960;7.138;2024-03-06T06:17:32;100988.91;;;11.17;92.22
41218;BME280;26950;50.960;7.138;2024-03-06T06:19:59;100993.50;;;11.24;92.50
41218;BME280;26950;50.960;7.138;2024-03-06T06:22:28;100997.22;;;11.31;91.89
41218;BME280;26950;50.960;7.138;2024-03-06T06:24:54;100999.06;;;11.33;91.72
41218;BME280;26950;50.960;7.138;2024-03-06T06:27:22;100997.31;;;11.34;91.59
41218;BME280;26950;50.960;7.138;2024-03-06T06:29:50;101000.88;;;11.36;91.51
41218;BME280;26950;50.960;7.138;2024-03-06T06:32:18;101007.91;;;11.37;91.15
41218;BME280;26950;50.960;7.138;2024-03-06T06:34:45;101007.13;;;11.40;90.41
41218;BME280;26950;50.960;7.138;2024-03-06T06:37:12;101009.72;;;11.38;90.02
41218;BME280;26950;50.960;7.138;2024-03-06T06:39:41;101013.13;;;11.35;90.32
41218;BME280;26950;50.960;7.138;2024-03-06T06:42:08;101014.25;;;11.44;89.92
41218;BME280;26950;50.960;7.138;2024-03-06T06:44:35;101023.88;;;11.43;89.99
41218;BME280;26950;50.960;7.138;2024-03-06T06:47:02;101022.94;;;11.41;89.83
41218;BME280;26950;50.960;7.138;2024-03-06T06:49:29;101024.94;;;11.50;89.72
41218;BME280;26950;50.960;7.138;2024-03-06T06:51:55;101031.88;;;11.46;87.43
41218;BME280;26950;50.960;7.138;2024-03-06T06:54:22;101037.63;;;11.34;86.79
41218;BME280;26950;50.960;7.138;2024-03-06T06:56:50;101042.84;;;11.33;87.55
41218;BME280;26950;50.960;7.138;2024-03-06T06:59:16;101044.50;;;11.31;88.37
41218;BME280;26950;50.960;7.138;2024-03-06T07:01:43;101040.03;;;11.27;87.47
41218;BME280;26950;50.960;7.138;2024-03-06T07:04:09;101039.88;;;11.22;87.36
41218;BME280;26950;50.960;7.138;2024-03-06T07:06:36;101050.50;;;11.25;87.33
41218;BME280;26950;50.960;7.138;2024-03-06T07:09:02;101051.66;;;11.35;87.73
41218;BME280;26950;50.960;7.138;2024-03-06T07:11:30;101056.03;;;11.34;88.25
41218;BME280;26950;50.960;7.138;2024-03-06T07:13:58;101060.38;;;11.34;88.66
41218;BME280;26950;50.960;7.138;2024-03-06T07:16:24;101058.88;;;11.42;88.31
41218;BME280;26950;50.960;7.138;2024-03-06T07:18:51;101065.34;;;11.52;87.55
41218;BME280;26950;50.960;7.138;2024-03-06T07:21:17;101068.16;;;11.58;88.12
41218;BME280;26950;50.960;7.138;2024-03-06T07:23:44;101067.53;;;11.67;87.87
41218;BME280;26950;50.960;7.138;2024-03-06T07:26:10;101064.69;;;11.59;84.91
41218;BME280;26950;50.960;7.138;2024-03-06T07:28:37;101079.72;;;11.63;84.64
41218;BME280;26950;50.960;7.138;2024-03-06T07:31:05;101076.78;;;11.54;84.59
41218;BME280;26950;50.960;7.138;2024-03-06T07:33:31;101086.25;;;11.49;86.69
41218;BME280;26950;50.960;7.138;2024-03-06T07:35:59;101082.78;;;11.50;87.09
41218;BME280;26950;50.960;7.138;2024-03-06T07:38:26;101089.28;;;11.62;86.37
41218;BME280;26950;50.960;7.138;2024-03-06T07:40:53;101091.19;;;11.67;86.42
41218;BME280;26950;50.960;7.138;2024-03-06T07:43:20;101089.44;;;11.67;86.82
41218;BME280;26950;50.960;7.138;2024-03-06T07:45:46;101093.09;;;11.71;86.23
41218;BME280;26950;50.960;7.138;2024-03-06T07:48:15;101091.31;;;11.70;84.13
41218;BME280;26950;50.960;7.138;2024-03-06T07:50:42;101093.09;;;11.71;84.89
41218;BME280;26950;50.960;7.138;2024-03-06T07:53:08;101098.69;;;11.81;84.24
41218;BME280;26950;50.960;7.138;2024-03-06T07:55:35;101102.66;;;11.96;82.75
41218;BME280;26950;50.960;7.138;2024-03-06T07:58:04;101108.16;;;12.05;80.66
41218;BME280;26950;50.960;7.138;2024-03-06T08:00:30;101110.53;;;11.96;79.56
41218;BME280;26950;50.960;7.138;2024-03-06T08:02:57;101115.50;;;11.86;81.69
41218;BME280;26950;50.960;7.138;2024-03-06T08:05:27;101120.28;;;12.00;82.13
41218;BME280;26950;50.960;7.138;2024-03-06T08:07:54;101120.63;;;11.82;82.42
41218;BME280;26950;50.960;7.138;2024-03-06T08:10:21;101123.25;;;11.55;83.15
41218;BME280;26950;50.960;7.138;2024-03-06T08:12:47;101118.88;;;11.55;84.93
41218;BME280;26950;50.960;7.138;2024-03-06T08:15:14;101124.97;;;11.54;84.31
41218;BME280;26950;50.960;7.138;2024-03-06T08:17:42;101125.81;;;11.53;85.16
41218;BME280;26950;50.960;7.138;2024-03-06T08:20:09;101130.63;;;11.67;86.06
41218;BME280;26950;50.960;7.138;2024-03-06T08:22:39;101127.00;;;11.90;85.56
41218;BME280;26950;50.960;7.138;2024-03-06T08:25:06;101130.03;;;12.02;84.93
41218;BME280;26950;50.960;7.138;2024-03-06T08:27:34;101138.94;;;12.07;85.54
41218;BME280;26950;50.960;7.138;2024-03-06T08:30:00;101142.16;;;11.99;84.33
41218;BME280;26950;50.960;7.138;2024-03-06T08:32:29;101142.22;;;12.00;85.74
41218;BME280;26950;50.960;7.138;2024-03-06T08:34:56;101132.13;;;12.14;84.33
41218;BME280;26950;50.960;7.138;2024-03-06T08:37:23;101142.75;;;12.19;82.75
41218;BME280;26950;50.960;7.138;2024-03-06T08:39:51;101148.31;;;12.28;80.35
41218;BME280;26950;50.960;7.138;2024-03-06T08:42:17;101133.28;;;12.24;80.54
41218;BME280;26950;50.960;7.138;2024-03-06T08:44:44;101139.28;;;12.50;80.73
41218;BME280;26950;50.960;7.138;2024-03-06T08:47:11;101118.50;;;12.59;79.54
41218;BME280;26950;50.960;7.138;2024-03-06T08:49:38;101137.44;;;12.77;78.28
41218;BME280;26950;50.960;7.138;2024-03-06T08:52:05;101142.94;;;12.86;77.39
41218;BME280;26950;50.960;7.138;2024-03-06T08:54:32;101145.75;;;12.94;76.41
41218;BME280;26950;50.960;7.138;2024-03-06T08:57:00;101147.50;;;12.93;77.86
41218;BME280;26950;50.960;7.138;2024-03-06T08:59:27;101161.63;;;12.95;76.74
41218;BME280;26950;50.960;7.138;2024-03-06T09:01:54;101143.13;;;12.94;77.04
41218;BME280;26950;50.960;7.138;2024-03-06T09:04:21;101156.13;;;12.88;76.84
41218;BME280;26950;50.960;7.138;2024-03-06T09:06:47;101159.53;;;12.82;76.48
41218;BME280;26950;50.960;7.138;2024-03-06T09:09:15;101164.69;;;12.79;76.52
41218;BME280;26950;50.960;7.138;2024-03-06T09:11:41;101155.50;;;12.63;76.26
41218;BME280;26950;50.960;7.138;2024-03-06T09:14:09;101173.81;;;12.60;77.81
41218;BME280;26950;50.960;7.138;2024-03-06T09:16:36;101161.31;;;12.52;76.55
41218;BME280;26950;50.960;7.138;2024-03-06T09:19:02;101163.69;;;12.44;79.49
41218;BME280;26950;50.960;7.138;2024-03-06T09:21:29;101167.66;;;12.60;80.33
41218;BME280;26950;50.960;7.138;2024-03-06T09:23:55;101174.03;;;12.68;77.74
41218;BME280;26950;50.960;7.138;2024-03-06T09:26:22;101181.81;;;12.63;77.59
41218;BME280;26950;50.960;7.138;2024-03-06T09:28:48;101179.91;;;12.58;77.21
41218;BME280;26950;50.960;7.138;2024-03-06T09:31:16;101178.03;;;12.54;78.79
41218;BME280;26950;50.960;7.138;2024-03-06T09:33:43;101183.78;;;12.71;78.88
41218;BME280;26950;50.960;7.138;2024-03-06T09:36:11;101180.59;;;12.82;78.03
41218;BME280;26950;50.960;7.138;2024-03-06T09:38:39;101192.22;;;12.90;77.67
41218;BME280;26950;50.960;7.138;2024-03-06T09:41:07;101197.41;;;12.87;75.33
41218;BME280;26950;50.960;7.138;2024-03-06T09:43:33;101192.09;;;12.86;76.95
41218;BME280;26950;50.960;7.138;2024-03-06T09:46:00;101198.25;;;12.86;77.57
41218;BME280;26950;50.960;7.138;2024-03-06T09:48:29;101190.66;;;12.97;77.41
41218;BME280;26950;50.960;7.138;2024-03-06T09:51:00;101198.41;;;12.92;76.71
41218;BME280;26950;50.960;7.138;2024-03-06T09:53:27;101198.19;;;12.83;76.85
41218;BME280;26950;50.960;7.138;2024-03-06T09:55:56;101211.06;;;12.74;76.93
41218;BME280;26950;50.960;7.138;2024-03-06T09:58:24;101203.66;;;12.61;78.97
41218;BME280;26950;50.960;7.138;2024-03-06T10:00:51;101207.16;;;12.60;79.55
41218;BME280;26950;50.960;7.138;2024-03-06T10:03:19;101206.34;;;12.62;79.08
41218;BME280;26950;50.960;7.138;2024-03-06T10:05:47;101213.56;;;12.69;79.19
41218;BME280;26950;50.960;7.138;2024-03-06T10:08:14;101213.66;;;12.73;78.48
41218;BME280;26950;50.960;7.138;2024-03-06T10:10:41;101203.72;;;12.62;79.87
41218;BME280;26950;50.960;7.138;2024-03-06T10:13:08;101180.53;;;12.51;79.07
41218;BME280;26950;50.960;7.138;2024-03-06T10:15:35;101220.81;;;12.77;78.45
41218;BME280;26950;50.960;7.138;2024-03-06T10:18:12;101215.91;;;12.89;79.59
41218;BME280;26950;50.960;7.138;2024-03-06T10:20:40;101211.75;;;12.99;78.38
41218;BME280;26950;50.960;7.138;2024-03-06T10:23:10;101222.97;;;13.21;77.09
41218;BME280;26950;50.960;7.138;2024-03-06T10:25:37;101229.13;;;13.22;77.36
41218;BME280;26950;50.960;7.138;2024-03-06T10:28:05;101233.31;;;13.15;76.69
41218;BME280;26950;50.960;7.138;2024-03-06T10:30:33;101243.59;;;13.06;77.16
41218;BME280;26950;50.960;7.138;2024-03-06T10:33:02;101243.38;;;12.99;77.02
41218;BME280;26950;50.960;7.138;2024-03-06T10:35:28;101241.28;;;12.57;79.17
41218;BME280;26950;50.960;7.138;2024-03-06T10:37:55;101234.31;;;12.57;78.37
41218;BME280;26950;50.960;7.138;2024-03-06T10:40:24;101226.28;;;12.54;78.84
41218;BME280;26950;50.960;7.138;2024-03-06T10:42:54;101243.53;;;12.73;79.36
41218;BME280;26950;50.960;7.138;2024-03-06T10:45:23;101235.78;;;12.78;78.67
41218;BME280;26950;50.960;7.138;2024-03-06T10:47:55;101244.72;;;12.84;78.91
41218;BME280;26950;50.960;7.138;2024-03-06T10:50:21;101240.78;;;13.00;78.89
41218;BME280;26950;50.960;7.138;2024-03-06T10:52:49;101244.72;;;13.14;79.07
41218;BME280;26950;50.960;7.138;2024-03-06T10:55:21;101243.72;;;13.42;77.34
41218;BME280;26950;50.960;7.138;2024-03-06T10:57:52;101247.59;;;13.57;75.67
41218;BME280;26950;50.960;7.138;2024-03-06T11:00:19;101239.59;;;13.88;73.81
41218;BME280;26950;50.960;7.138;2024-03-06T11:02:46;101238.25;;;14.06;73.99
41218;BME280;26950;50.960;7.138;2024-03-06T11:05:14;101227.38;;;14.29;71.47
41218;BME280;26950;50.960;7.138;2024-03-06T11:07:42;101234.00;;;14.48;69.21
41218;BME280;26950;50.960;7.138;2024-03-06T11:10:09;101227.13;;;15.00;67.07
41218;BME280;26950;50.960;7.138;2024-03-06T11:12:42;101237.84;;;16.08;63.46
41218;BME280;26950;50.960;7.138;2024-03-06T11:15:13;101237.41;;;16.36;58.98
41218;BME280;26950;50.960;7.138;2024-03-06T11:17:42;101235.84;;;17.23;57.20
41218;BME280;26950;50.960;7.138;2024-03-06T11:20:13;101236.06;;;18.64;52.55
41218;BME280;26950;50.960;7.138;2024-03-06T11:23:02;101229.16;;;20.69;47.30
41218;BME280;26950;50.960;7.138;2024-03-06T11:25:55;101218.47;;;22.84;41.86
41218;BME280;26950;50.960;7.138;2024-03-06T11:28:24;101214.56;;;24.20;39.47
41218;BME280;26950;50.960;7.138;2024-03-06T11:30:56;101220.22;;;24.95;36.33
41218;BME280;26950;50.960;7.138;2024-03-06T11:33:27;101216.03;;;25.23;35.87
41218;BME280;26950;50.960;7.138;2024-03-06T11:36:14;101214.88;;;26.39;33.65
41218;BME280;26950;50.960;7.138;2024-03-06T11:38:42;101209.16;;;27.94;31.73
41218;BME280;26950;50.960;7.138;2024-03-06T11:41:09;101206.06;;;28.80;29.83
41218;BME280;26950;50.960;7.138;2024-03-06T11:43:42;101210.66;;;29.01;28.89
41218;BME280;26950;50.960;7.138;2024-03-06T11:46:10;101206.41;;;29.18;28.44
41218;BME280;26950;50.960;7.138;2024-03-06T11:48:36;101206.31;;;29.43;28.01
41218;BME280;26950;50.960;7.138;2024-03-06T11:51:03;101209.31;;;27.63;29.05
41218;BME280;26950;50.960;7.138;2024-03-06T11:53:33;101212.84;;;26.16;31.16
41218;BME280;26950;50.960;7.138;2024-03-06T11:56:00;101212.63;;;25.54;32.45
41218;BME280;26950;50.960;7.138;2024-03-06T11:58:26;101205.13;;;25.29;33.33
41218;BME280;26950;50.960;7.138;2024-03-06T12:00:54;101207.00;;;24.42;34.34
41218;BME280;26950;50.960;7.138;2024-03-06T12:03:22;101208.19;;;23.20;36.72
41218;BME280;26950;50.960;7.138;2024-03-06T12:05:50;101204.06;;;23.54;36.41
41218;BME280;26950;50.960;7.138;2024-03-06T12:08:18;101204.31;;;24.86;35.35
41218;BME280;26950;50.960;7.138;2024-03-06T12:10:45;101177.59;;;27.17;30.80
41218;BME280;26950;50.960;7.138;2024-03-06T12:13:12;101189.44;;;28.67;30.01
41218;BME280;26950;50.960;7.138;2024-03-06T12:15:42;101187.34;;;30.27;28.25
41218;BME280;26950;50.960;7.138;2024-03-06T12:18:09;101185.34;;;31.09;26.27
41218;BME280;26950;50.960;7.138;2024-03-06T12:20:40;101179.66;;;30.57;24.87
41218;BME280;26950;50.960;7.138;2024-03-06T12:23:18;101178.09;;;29.92;25.93
41218;BME280;26950;50.960;7.138;2024-03-06T12:25:45;101189.19;;;28.98;26.71
41218;BME280;26950;50.960;7.138;2024-03-06T12:28:11;101188.50;;;26.52;30.09
41218;BME280;26950;50.960;7.138;2024-03-06T12:30:41;101193.91;;;24.24;32.21
41218;BME280;26950;50.960;7.138;2024-03-06T12:33:09;101194.94;;;22.40;34.85
41218;BME280;26950;50.960;7.138;2024-03-06T12:35:41;101204.91;;;21.12;37.45
41218;BME280;26950;50.960;7.138;2024-03-06T12:38:14;101192.78;;;20.33;38.58
41218;BME280;26950;50.960;7.138;2024-03-06T12:40:40;101205.31;;;19.77;39.85
41218;BME280;26950;50.960;7.138;2024-03-06T12:43:07;101201.75;;;19.45;41.30
41218;BME280;26950;50.960;7.138;2024-03-06T12:45:34;101202.59;;;19.28;41.13
41218;BME280;26950;50.960;7.138;2024-03-06T12:48:01;101202.63;;;19.51;41.94
41218;BME280;26950;50.960;7.138;2024-03-06T12:50:29;101194.66;;;20.02;40.89